Reading, KS

6:15 AM CST on March 02, 2015 (GMT -0600)
East Emporia Kansas | Change Station
CLOSE
Current Station
Personal Weather Station
Location: Emporia, KS
Elevation: 1106 ft
Nearby Weather Stations

Elev 1106 ft 38.39 °N, 96.12 °W | Updated 11 minutes ago

Clear
Clear
20.1 °F
Feels Like 20 °F
N
0.0
Wind Variable Wind from SSE

Today
High -- | Low -- °F
--% Chance of Precip.
Yesterday
High -- | Low -- °F
Precip. -- in
6:55 AM 6:17 PM
Waxing Gibbous, 91% visible
Pressure 30.50 in
Visibility 6.0 miles
Clouds Clear
Windchill 20 °F
Dew Point 17 °F
Humidity 89%
Rainfall 0.00 in
Snow Depth Not available.
UV 0 out of 12
Pollen .50 out of 12
Air Quality Not available.
Flu Activity Not available.
METAR KEMP 021053Z AUTO 00000KT 6SM BR CLR M07/M09 A3044 RMK AO2 SLP327 T10721089

More Conditions Fewer Conditions

Pressure 30.50 in
Visibility 6.0 miles
Clouds Clear
Windchill 20 °F
Dew Point 17 °F
Humidity 89%
Rainfall 0.00 in
Snow Depth Not available.
UV 0 out of 12
Pollen .50 out of 12
Air Quality Not available.
Flu Activity Not available.
METAR KEMP 021053Z AUTO 00000KT 6SM BR CLR M07/M09 A3044 RMK AO2 SLP327 T10721089

More Conditions Fewer Conditions

10-Day Weather Forecast

Almanac

Astronomy

Mar. 02, 2015 Rise Set
Actual Time
Civil Twilight
Nautical Twilight
Astronomical Twilight
Moon
Length of Visible Light
Length of Day
Tomorrow will be .
, % of the Moon is Illuminated

Today's Extremes

State Highs State Lows

Community

WunderPhotos

Upload Photos

1,801,770 photos uploaded!

WunderBlogs® & News

Nearby

Air Quality

  Air Quality AQ Index Pollutant
Not available.

Snow Depth

Station Depth Elevation

Earthquake Activity

City Distance Mag. Time & Date
Minimum magnitude displayed is 2.5.

Coastal Water Temperatures

Place Temperature

Nearby Weather Stations